createdAt,value
2018-03-20T00:01:33.678Z,10.63
2018-03-20T00:04:01.943Z,11.40
2018-03-20T00:06:29.409Z,10.07
2018-03-20T00:08:56.901Z,12.93
2018-03-20T00:11:24.368Z,11.60
2018-03-20T00:13:51.863Z,11.17
2018-03-20T00:16:20.161Z,12.43
2018-03-20T00:18:48.461Z,10.70
2018-03-20T00:21:16.034Z,12.40
2018-03-20T00:23:43.517Z,11.83
2018-03-20T00:26:10.986Z,12.23
2018-03-20T00:28:38.466Z,12.37
2018-03-20T00:31:05.941Z,12.57
2018-03-20T00:33:33.440Z,11.33
2018-03-20T00:36:00.917Z,9.87
2018-03-20T00:38:28.394Z,9.23
2018-03-20T00:40:55.866Z,9.57
2018-03-20T00:43:23.353Z,9.87
2018-03-20T00:45:51.608Z,8.87
2018-03-20T00:48:19.206Z,10.03
2018-03-20T00:50:47.446Z,10.57
2018-03-20T00:53:14.938Z,10.90
2018-03-20T00:55:42.402Z,12.33
2018-03-20T00:58:09.878Z,9.87
2018-03-20T01:00:37.355Z,11.80
2018-03-20T01:03:04.882Z,11.50
2018-03-20T01:05:32.345Z,10.10
2018-03-20T01:07:59.809Z,10.00
2018-03-20T01:10:27.387Z,11.93
2018-03-20T01:12:54.867Z,10.83
2018-03-20T01:15:22.350Z,9.47
2018-03-20T01:17:49.834Z,9.33
2018-03-20T01:20:17.329Z,8.30
2018-03-20T01:22:44.802Z,10.30
2018-03-20T01:25:12.285Z,9.33
2018-03-20T01:27:39.780Z,9.87
2018-03-20T01:30:08.046Z,10.47
2018-03-20T01:32:35.518Z,9.73
2018-03-20T01:35:03.071Z,10.10
2018-03-20T01:37:30.555Z,10.20
2018-03-20T01:39:58.056Z,8.70
2018-03-20T01:42:25.600Z,8.43
2018-03-20T01:44:53.158Z,8.20
2018-03-20T01:47:20.619Z,7.53
2018-03-20T01:49:48.126Z,9.00
2018-03-20T01:52:16.371Z,8.97
2018-03-20T01:54:43.852Z,8.93
2018-03-20T01:57:11.309Z,10.13
2018-03-20T01:59:38.896Z,8.43
2018-03-20T02:02:06.424Z,7.10
2018-03-20T02:04:33.927Z,5.90
2018-03-20T02:07:01.415Z,7.27
2018-03-20T02:09:28.994Z,7.80
2018-03-20T02:11:56.448Z,8.33
2018-03-20T02:14:23.990Z,8.33
2018-03-20T02:16:51.505Z,8.03
2018-03-20T02:19:18.982Z,7.80
2018-03-20T02:21:46.556Z,7.20
2018-03-20T02:24:14.171Z,6.50
2018-03-20T02:26:41.652Z,5.90
2018-03-20T02:29:09.160Z,6.27
2018-03-20T02:31:36.641Z,6.57
2018-03-20T02:34:04.106Z,6.10
2018-03-20T02:36:31.582Z,6.63
2018-03-20T02:38:59.091Z,7.00
2018-03-20T02:41:26.644Z,6.60
2018-03-20T02:43:54.946Z,6.40
2018-03-20T02:46:23.244Z,6.57
2018-03-20T02:48:50.716Z,7.13
2018-03-20T02:51:18.193Z,6.80
2018-03-20T02:53:45.758Z,6.43
2018-03-20T02:56:13.244Z,6.43
2018-03-20T02:58:40.792Z,6.47
2018-03-20T03:01:09.123Z,6.07
2018-03-20T03:03:36.592Z,5.93
2018-03-20T03:06:04.062Z,6.97
2018-03-20T03:08:31.525Z,6.80
2018-03-20T03:10:59.014Z,6.30
2018-03-20T03:13:26.483Z,6.80
2018-03-20T03:15:53.956Z,7.63
2018-03-20T03:18:21.416Z,6.43
2018-03-20T03:20:48.902Z,5.77
2018-03-20T03:23:16.356Z,5.53
2018-03-20T03:25:43.845Z,7.27
2018-03-20T03:28:11.297Z,6.40
2018-03-20T03:30:38.802Z,6.40
2018-03-20T03:33:06.414Z,6.40
2018-03-20T03:35:34.643Z,7.07
2018-03-20T03:38:02.116Z,6.47
2018-03-20T03:40:29.596Z,6.00
2018-03-20T03:42:57.106Z,7.03
2018-03-20T03:45:24.560Z,6.57
2018-03-20T03:47:52.798Z,6.27
2018-03-20T03:50:20.345Z,6.13
2018-03-20T03:52:48.638Z,5.63
2018-03-20T03:55:16.110Z,6.53
2018-03-20T03:57:43.599Z,6.67
2018-03-20T04:00:11.055Z,6.47
2018-03-20T04:02:38.534Z,5.93
2018-03-20T04:05:06.053Z,6.23
2018-03-20T04:07:33.615Z,6.30
2018-03-20T04:10:01.072Z,6.43
2018-03-20T04:12:28.626Z,5.80
2018-03-20T04:14:56.089Z,5.53
2018-03-20T04:17:23.606Z,5.07
2018-03-20T04:19:51.110Z,5.60
2018-03-20T04:22:19.365Z,5.27
2018-03-20T04:24:46.833Z,6.47
2018-03-20T04:27:14.297Z,6.20
2018-03-20T04:29:41.883Z,5.73
2018-03-20T04:32:09.338Z,5.37
2018-03-20T04:34:36.811Z,6.07
2018-03-20T04:37:04.436Z,5.40
2018-03-20T04:39:31.921Z,5.00
2018-03-20T04:41:59.432Z,5.27
2018-03-20T04:44:26.908Z,5.43
2018-03-20T04:46:54.440Z,5.63
2018-03-20T04:49:21.916Z,5.40
2018-03-20T04:51:49.392Z,5.47
2018-03-20T04:54:16.867Z,4.80
2018-03-20T04:56:44.333Z,5.43
2018-03-20T04:59:11.937Z,5.43
2018-03-20T05:01:39.480Z,5.80
2018-03-20T05:04:06.972Z,5.23
2018-03-20T05:06:34.429Z,5.30
2018-03-20T05:09:01.910Z,5.83
2018-03-20T05:11:29.367Z,4.73
2018-03-20T05:13:56.846Z,5.60
2018-03-20T05:16:24.379Z,4.93
2018-03-20T05:18:51.843Z,4.93
2018-03-20T05:21:35.968Z,5.27
2018-03-20T05:24:05.561Z,5.70
2018-03-20T05:26:33.037Z,5.90
2018-03-20T05:29:00.510Z,5.77
2018-03-20T05:31:27.997Z,5.70
2018-03-20T05:33:55.502Z,5.70
2018-03-20T05:36:23.738Z,6.17
2018-03-20T05:38:51.195Z,5.60
2018-03-20T05:41:18.673Z,6.73
2018-03-20T05:43:46.133Z,6.37
2018-03-20T05:46:13.595Z,6.33
2018-03-20T05:51:47.213Z,6.17
2018-03-20T05:54:14.664Z,6.13
2018-03-20T05:56:42.229Z,5.80
2018-03-20T05:59:09.707Z,6.43
2018-03-20T06:01:37.193Z,7.00
2018-03-20T06:04:04.660Z,6.83
2018-03-20T06:06:32.142Z,6.67
2018-03-20T06:09:00.374Z,6.73
2018-03-20T06:11:27.886Z,7.70
2018-03-20T06:13:55.341Z,7.43
2018-03-20T06:16:22.820Z,7.23
2018-03-20T06:18:50.277Z,6.93
2018-03-20T06:21:17.733Z,6.83
2018-03-20T06:23:45.254Z,7.67
2018-03-20T06:26:13.480Z,6.60
2018-03-20T06:28:41.004Z,6.63
2018-03-20T06:31:09.269Z,7.20
2018-03-20T06:33:36.857Z,7.47
2018-03-20T06:36:04.428Z,5.77
2018-03-20T06:38:31.902Z,6.87
2018-03-20T06:40:59.353Z,6.07
2018-03-20T06:43:26.829Z,6.20
2018-03-20T06:45:54.313Z,6.90
2018-03-20T06:48:21.793Z,7.10
2018-03-20T06:50:49.246Z,6.80
2018-03-20T06:53:16.716Z,6.37
2018-03-20T06:55:44.208Z,6.33
2018-03-20T06:58:12.484Z,7.03
2018-03-20T07:00:39.941Z,6.93
2018-03-20T07:03:07.416Z,6.10
2018-03-20T07:05:34.873Z,7.20
2018-03-20T07:08:02.350Z,6.60
2018-03-20T07:10:30.588Z,6.50
2018-03-20T07:12:58.857Z,6.37
2018-03-20T07:15:27.089Z,9.07
2018-03-20T07:17:54.556Z,5.97
2018-03-20T07:20:22.015Z,6.40
2018-03-20T07:22:49.534Z,6.63
2018-03-20T07:25:17.006Z,6.90
2018-03-20T07:27:44.480Z,6.23
2018-03-20T07:30:11.959Z,6.03
2018-03-20T07:32:39.409Z,6.30
2018-03-20T07:35:06.919Z,7.53
2018-03-20T07:37:35.155Z,5.93
2018-03-20T07:40:02.633Z,6.37
2018-03-20T07:42:30.109Z,6.87
2018-03-20T07:44:57.574Z,5.80
2018-03-20T07:47:25.070Z,5.33
2018-03-20T07:49:52.541Z,6.33
2018-03-20T07:52:20.026Z,6.23
2018-03-20T07:54:47.510Z,5.50
2018-03-20T07:57:15.732Z,5.97
2018-03-20T07:59:43.198Z,5.40
2018-03-20T08:02:10.672Z,5.33
2018-03-20T08:04:38.142Z,6.77
2018-03-20T08:07:05.619Z,5.70
2018-03-20T08:09:33.914Z,6.37
2018-03-20T08:12:01.364Z,5.57
2018-03-20T08:14:28.886Z,6.00
2018-03-20T08:16:56.378Z,5.30
2018-03-20T08:19:24.677Z,5.70
2018-03-20T08:21:52.110Z,6.07
2018-03-20T08:24:19.570Z,5.40
2018-03-20T08:26:47.070Z,5.57
2018-03-20T08:29:15.300Z,5.17
2018-03-20T08:31:42.868Z,5.77
2018-03-20T08:34:10.326Z,5.73
2018-03-20T08:36:38.617Z,7.10
2018-03-20T08:39:06.085Z,6.03
2018-03-20T08:41:34.380Z,6.93
2018-03-20T08:44:01.832Z,6.37
2018-03-20T08:46:30.087Z,6.37
2018-03-20T08:48:57.567Z,5.47
2018-03-20T08:51:25.062Z,5.03
2018-03-20T08:53:53.299Z,6.37
2018-03-20T08:56:20.840Z,4.77
2018-03-20T08:58:49.120Z,5.67
2018-03-20T09:01:17.362Z,5.93
2018-03-20T09:03:45.654Z,4.87
2018-03-20T09:06:13.125Z,5.13
2018-03-20T09:08:40.581Z,5.80
2018-03-20T09:11:08.056Z,7.03
2018-03-20T09:13:36.277Z,5.43
2018-03-20T09:16:03.734Z,6.67
2018-03-20T09:18:31.198Z,4.40
2018-03-20T09:20:58.680Z,5.57
2018-03-20T09:23:26.211Z,5.57
2018-03-20T09:25:53.661Z,6.47
2018-03-20T09:28:21.128Z,6.17
2018-03-20T09:30:48.585Z,6.50
2018-03-20T09:33:16.897Z,5.50
2018-03-20T09:35:44.361Z,5.87
2018-03-20T09:38:11.855Z,6.67
2018-03-20T09:40:39.408Z,5.60
2018-03-20T09:43:06.885Z,5.17
2018-03-20T09:45:35.120Z,5.33
2018-03-20T09:48:02.634Z,5.97
2018-03-20T09:50:30.933Z,4.93
2018-03-20T09:52:58.493Z,4.70
2018-03-20T09:55:26.781Z,4.40
2018-03-20T09:57:55.032Z,4.70
2018-03-20T10:00:22.505Z,5.70
2018-03-20T10:02:49.989Z,5.43
2018-03-20T10:05:17.461Z,6.00
2018-03-20T10:07:44.993Z,5.77
2018-03-20T10:10:13.277Z,5.57
2018-03-20T10:12:40.754Z,6.23
2018-03-20T10:15:08.228Z,6.03
2018-03-20T10:17:35.735Z,5.03
2018-03-20T10:20:03.226Z,5.73
2018-03-20T10:22:31.528Z,6.30
2018-03-20T10:24:59.045Z,6.33
2018-03-20T10:27:26.512Z,5.93
2018-03-20T10:29:54.030Z,6.27
2018-03-20T10:32:22.251Z,5.53
2018-03-20T10:34:49.744Z,5.30
2018-03-20T10:37:17.210Z,5.80
2018-03-20T10:39:44.717Z,5.43
2018-03-20T10:42:12.176Z,5.90
2018-03-20T10:44:39.649Z,5.67
2018-03-20T10:47:07.890Z,4.83
2018-03-20T10:49:35.360Z,4.90
2018-03-20T10:52:02.821Z,5.20
2018-03-20T10:54:30.452Z,5.37
2018-03-20T10:56:57.917Z,4.97
2018-03-20T10:59:25.403Z,4.80
2018-03-20T11:01:53.822Z,5.30
2018-03-20T11:04:21.296Z,5.00
2018-03-20T11:06:48.776Z,6.03
2018-03-20T11:09:16.245Z,5.03
2018-03-20T11:11:43.702Z,5.33
2018-03-20T11:14:11.179Z,4.80
2018-03-20T11:16:38.633Z,6.63
2018-03-20T11:19:06.913Z,5.00
2018-03-20T11:21:35.136Z,6.67
2018-03-20T11:24:02.619Z,6.03
2018-03-20T11:26:30.139Z,6.20
2018-03-20T11:28:57.588Z,5.67
2018-03-20T11:31:25.889Z,5.20
2018-03-20T11:33:53.345Z,5.00
2018-03-20T11:36:20.927Z,5.77
2018-03-20T11:38:48.382Z,6.60
2018-03-20T11:41:15.855Z,6.20
2018-03-20T11:43:43.347Z,6.03
2018-03-20T11:46:10.831Z,6.03
2018-03-20T11:48:39.058Z,5.67
2018-03-20T11:51:06.549Z,5.10
2018-03-20T11:53:34.018Z,5.70
2018-03-20T11:56:01.505Z,5.63
2018-03-20T11:58:28.975Z,4.83
2018-03-20T12:00:56.475Z,4.83
2018-03-20T12:03:24.745Z,5.93
2018-03-20T12:05:52.257Z,6.90
2018-03-20T12:08:31.608Z,7.40
2018-03-20T12:10:59.071Z,6.17
2018-03-20T12:13:27.352Z,5.60
2018-03-20T12:15:55.573Z,6.90
2018-03-20T12:18:23.048Z,7.10
2018-03-20T12:20:50.532Z,6.20
2018-03-20T12:23:18.005Z,6.60
2018-03-20T12:25:45.466Z,6.53
2018-03-20T12:28:12.955Z,5.73
2018-03-20T12:30:40.431Z,6.53
2018-03-20T12:33:07.916Z,5.37
2018-03-20T12:35:35.383Z,6.30
2018-03-20T12:38:03.671Z,5.93
2018-03-20T12:40:31.154Z,6.20
2018-03-20T12:42:58.620Z,6.70
2018-03-20T12:45:26.101Z,6.00
2018-03-20T12:47:54.340Z,5.00
2018-03-20T12:50:21.818Z,6.23
2018-03-20T12:52:49.289Z,5.70
2018-03-20T12:55:16.769Z,4.67
2018-03-20T12:57:44.256Z,6.60
2018-03-20T13:00:12.534Z,6.23
2018-03-20T13:02:39.997Z,5.67
2018-03-20T13:05:07.478Z,5.80
2018-03-20T13:07:34.936Z,5.80
2018-03-20T13:10:02.570Z,5.80
2018-03-20T13:12:30.080Z,5.93
2018-03-20T13:14:57.550Z,5.63
2018-03-20T13:17:25.033Z,5.97
2018-03-20T13:19:52.502Z,5.60
2018-03-20T13:22:19.982Z,5.77
2018-03-20T13:24:47.490Z,6.07
2018-03-20T13:27:15.733Z,5.83
2018-03-20T13:29:43.198Z,5.37
2018-03-20T13:32:10.726Z,6.00
2018-03-20T13:34:38.179Z,6.23
2018-03-20T13:37:06.432Z,6.37
2018-03-20T13:39:33.898Z,5.80
2018-03-20T13:42:01.417Z,7.07
2018-03-20T13:44:28.876Z,6.83
2018-03-20T13:46:56.323Z,6.90
2018-03-20T13:49:23.814Z,9.97
2018-03-20T13:51:51.285Z,9.53
2018-03-20T13:54:19.582Z,8.63
2018-03-20T13:56:47.812Z,9.50
2018-03-20T13:59:15.289Z,8.47
2018-03-20T14:01:42.744Z,8.13
2018-03-20T14:04:10.231Z,7.53
2018-03-20T14:06:37.699Z,7.07
2018-03-20T14:09:05.193Z,7.63
2018-03-20T14:11:32.665Z,5.97
2018-03-20T14:14:00.137Z,7.67
2018-03-20T14:16:27.615Z,6.10
2018-03-20T14:18:55.104Z,5.50
2018-03-20T14:21:23.325Z,5.30
2018-03-20T14:23:50.866Z,4.97
2018-03-20T14:26:19.119Z,5.90
2018-03-20T14:28:46.610Z,6.63
2018-03-20T14:31:14.115Z,5.60
2018-03-20T14:33:42.317Z,5.63
2018-03-20T14:36:09.805Z,5.37
2018-03-20T14:38:37.276Z,6.20
2018-03-20T14:41:04.760Z,5.67
2018-03-20T14:43:32.213Z,5.10
2018-03-20T14:46:00.370Z,6.47
2018-03-20T14:48:27.845Z,5.40
2018-03-20T14:50:55.322Z,5.13
2018-03-20T14:53:22.790Z,5.03
2018-03-20T14:55:50.278Z,4.53
2018-03-20T14:58:17.752Z,5.47
2018-03-20T15:00:45.298Z,5.17
2018-03-20T15:03:12.779Z,5.80
2018-03-20T15:05:40.238Z,5.10
2018-03-20T15:08:07.724Z,4.87
2018-03-20T15:10:35.254Z,5.03
2018-03-20T15:13:02.729Z,5.63
2018-03-20T15:15:30.985Z,5.57
2018-03-20T15:17:58.516Z,6.10
2018-03-20T15:20:25.978Z,5.83
2018-03-20T15:22:54.241Z,5.40
2018-03-20T15:25:21.746Z,5.47
2018-03-20T15:27:49.271Z,5.13
2018-03-20T15:30:16.743Z,5.43
2018-03-20T15:32:44.223Z,4.60
2018-03-20T15:35:11.689Z,4.90
2018-03-20T15:37:39.205Z,7.60
2018-03-20T15:40:06.696Z,5.57
2018-03-20T15:42:34.162Z,5.17
2018-03-20T15:45:01.644Z,6.30
2018-03-20T15:47:29.133Z,14.97
2018-03-20T15:49:57.425Z,6.00
2018-03-20T15:52:24.903Z,5.93
2018-03-20T15:54:52.402Z,6.80
2018-03-20T15:57:20.641Z,8.07
2018-03-20T15:59:48.113Z,6.03
2018-03-20T16:02:15.569Z,6.00
2018-03-20T16:04:43.058Z,5.60
2018-03-20T16:07:10.520Z,6.03
2018-03-20T16:09:38.060Z,6.07
2018-03-20T16:12:05.530Z,6.10
2018-03-20T16:14:33.021Z,6.20
2018-03-20T16:17:00.489Z,5.90
2018-03-20T16:19:27.951Z,5.70
2018-03-20T16:21:55.448Z,6.40
2018-03-20T16:24:22.945Z,5.33
2018-03-20T16:26:50.413Z,5.73
2018-03-20T16:29:17.991Z,6.77
2018-03-20T16:31:46.229Z,6.07
2018-03-20T16:34:13.767Z,5.40
2018-03-20T16:36:41.270Z,5.43
2018-03-20T16:39:08.731Z,6.20
2018-03-20T16:41:36.273Z,5.97
2018-03-20T16:44:03.745Z,4.67
2018-03-20T16:46:32.108Z,5.10
2018-03-20T16:48:59.588Z,5.90
2018-03-20T16:51:27.925Z,5.23
2018-03-20T16:53:55.386Z,5.43
2018-03-20T16:56:22.928Z,5.27
2018-03-20T16:58:50.411Z,6.67
2018-03-20T17:01:18.698Z,5.10
2018-03-20T17:03:46.164Z,5.03
2018-03-20T17:06:13.637Z,5.33
2018-03-20T17:08:41.196Z,5.17
2018-03-20T17:11:08.689Z,5.97
2018-03-20T17:13:36.167Z,6.00
2018-03-20T17:16:04.461Z,5.33
2018-03-20T17:18:32.725Z,6.50
2018-03-20T17:21:00.165Z,6.73
2018-03-20T17:23:27.628Z,5.73
2018-03-20T17:25:55.089Z,6.53
2018-03-20T17:28:22.636Z,5.10
2018-03-20T17:30:50.042Z,5.30
2018-03-20T17:33:17.509Z,5.93
2018-03-20T17:35:45.034Z,5.33
2018-03-20T17:38:12.544Z,4.90
2018-03-20T17:40:40.000Z,4.50
2018-03-20T17:43:07.513Z,5.27
2018-03-20T17:45:34.974Z,4.63
2018-03-20T17:48:02.454Z,4.97
2018-03-20T17:50:29.935Z,5.17
2018-03-20T17:52:57.404Z,4.20
2018-03-20T17:55:24.863Z,4.97
2018-03-20T17:57:52.356Z,5.37
2018-03-20T18:00:19.826Z,6.47
2018-03-20T18:02:47.277Z,7.73
2018-03-20T18:05:14.770Z,10.50
2018-03-20T18:07:42.225Z,7.77
2018-03-20T18:10:09.719Z,8.17
2018-03-20T18:12:37.201Z,7.17
2018-03-20T18:15:04.740Z,6.80
2018-03-20T18:17:32.365Z,6.23
2018-03-20T18:20:00.612Z,5.17
2018-03-20T18:22:28.066Z,4.93
2018-03-20T18:24:55.602Z,4.87
2018-03-20T18:27:23.079Z,5.80
2018-03-20T18:29:50.545Z,5.87
2018-03-20T18:32:18.032Z,6.37
2018-03-20T18:34:45.542Z,5.90
2018-03-20T18:37:13.013Z,6.00
2018-03-20T18:39:40.529Z,6.07
2018-03-20T18:42:08.063Z,6.17
2018-03-20T18:44:35.751Z,5.53
2018-03-20T18:47:03.254Z,5.80
2018-03-20T18:49:30.710Z,6.47
2018-03-20T18:51:58.294Z,6.93
2018-03-20T18:54:25.862Z,9.07
2018-03-20T18:56:53.341Z,8.23
2018-03-20T18:59:20.806Z,9.27
2018-03-20T19:01:48.293Z,8.70
2018-03-20T19:04:15.754Z,7.17
2018-03-20T19:06:43.257Z,5.93
2018-03-20T19:09:10.755Z,5.47
2018-03-20T19:11:38.255Z,5.60
2018-03-20T19:14:05.721Z,6.20
2018-03-20T19:16:33.960Z,7.20
2018-03-20T19:19:01.430Z,9.43
2018-03-20T19:21:28.897Z,8.03
2018-03-20T19:23:56.430Z,15.97
2018-03-20T19:26:24.003Z,12.20
2018-03-20T19:28:52.245Z,10.50
2018-03-20T19:31:19.713Z,9.17
2018-03-20T19:33:47.211Z,9.57
2018-03-20T19:36:15.460Z,8.53
2018-03-20T19:38:43.745Z,7.20
2018-03-20T19:41:11.229Z,7.93
2018-03-20T19:43:38.862Z,7.40
2018-03-20T19:46:06.379Z,8.97
2018-03-20T19:48:33.862Z,23.43
2018-03-20T19:51:01.352Z,27.87
2018-03-20T19:53:28.895Z,22.63
2018-03-20T19:55:56.376Z,19.47
2018-03-20T19:58:23.864Z,14.43
2018-03-20T20:00:51.325Z,10.07
2018-03-20T20:03:20.238Z,7.67
2018-03-20T20:05:47.701Z,7.30
2018-03-20T20:08:16.883Z,7.17
2018-03-20T20:10:45.242Z,6.57
2018-03-20T20:13:12.709Z,7.03
2018-03-20T20:15:41.391Z,7.53
2018-03-20T20:18:09.661Z,8.07
2018-03-20T20:20:37.336Z,8.37
2018-03-20T20:23:04.904Z,7.93
2018-03-20T20:25:32.413Z,7.43
2018-03-20T20:27:59.903Z,6.97
2018-03-20T20:30:27.374Z,5.80
2018-03-20T20:32:54.833Z,8.40
2018-03-20T20:35:22.388Z,6.77
2018-03-20T20:37:49.858Z,6.93
2018-03-20T20:40:17.444Z,7.60
2018-03-20T20:42:44.909Z,8.00
2018-03-20T20:45:13.172Z,8.13
2018-03-20T20:47:40.712Z,7.00
2018-03-20T20:50:08.187Z,7.07
2018-03-20T20:52:35.689Z,6.87
2018-03-20T20:55:03.146Z,7.57
2018-03-20T20:57:30.668Z,6.83
2018-03-20T20:59:58.235Z,7.17
2018-03-20T21:02:25.721Z,6.57
2018-03-20T21:04:53.181Z,5.73
2018-03-20T21:07:20.710Z,6.70
2018-03-20T21:09:48.164Z,6.13
2018-03-20T21:12:15.670Z,6.93
2018-03-20T21:14:43.982Z,6.23
2018-03-20T21:17:11.456Z,6.63
2018-03-20T21:19:38.908Z,7.43
2018-03-20T21:22:07.273Z,6.63
2018-03-20T21:24:34.763Z,7.67
2018-03-20T21:27:03.039Z,7.67
2018-03-20T21:29:30.551Z,6.83
2018-03-20T21:31:58.324Z,6.37
2018-03-20T21:34:25.877Z,6.97
2018-03-20T21:36:54.148Z,8.17
2018-03-20T21:39:21.672Z,7.00
2018-03-20T21:41:49.136Z,6.93
2018-03-20T21:44:16.610Z,7.37
2018-03-20T21:46:44.092Z,7.43
2018-03-20T21:49:11.595Z,7.13
2018-03-20T21:51:39.077Z,7.30
2018-03-20T21:54:06.619Z,7.70
2018-03-20T21:56:34.160Z,7.03
2018-03-20T21:59:01.688Z,6.40
2018-03-20T22:01:29.300Z,7.60
2018-03-20T22:03:56.801Z,6.90
2018-03-20T22:06:24.257Z,7.73
2018-03-20T22:08:51.724Z,6.53
2018-03-20T22:11:19.223Z,6.57
2018-03-20T22:13:46.697Z,7.97
2018-03-20T22:16:14.182Z,7.43
2018-03-20T22:18:41.678Z,7.80
2018-03-20T22:21:09.935Z,7.67
2018-03-20T22:23:37.397Z,8.03
2018-03-20T22:26:04.902Z,6.80
2018-03-20T22:28:32.369Z,7.50
2018-03-20T22:31:00.620Z,7.27
2018-03-20T22:33:28.110Z,8.23
2018-03-20T22:35:55.629Z,8.40
2018-03-20T22:38:23.099Z,8.60
2018-03-20T22:40:50.596Z,9.50
2018-03-20T22:43:18.066Z,9.27
2018-03-20T22:45:46.344Z,9.60
2018-03-20T22:48:13.839Z,9.30
2018-03-20T22:50:41.330Z,8.47
2018-03-20T22:53:08.805Z,8.53
2018-03-20T22:55:36.278Z,8.60
2018-03-20T22:58:03.753Z,9.30
2018-03-20T23:00:32.149Z,8.50
2018-03-20T23:02:59.631Z,8.80
2018-03-20T23:05:28.615Z,9.30
2018-03-20T23:07:56.138Z,10.47
2018-03-20T23:10:23.802Z,10.33
2018-03-20T23:12:51.293Z,10.77
2018-03-20T23:15:18.848Z,9.57
2018-03-20T23:17:46.349Z,10.33
2018-03-20T23:20:13.813Z,10.13
2018-03-20T23:22:41.368Z,9.63
2018-03-20T23:25:08.936Z,10.27
2018-03-20T23:27:36.401Z,10.03
2018-03-20T23:30:03.893Z,10.03
2018-03-20T23:32:31.369Z,10.27
2018-03-20T23:34:58.850Z,10.13
2018-03-20T23:37:26.330Z,9.70
2018-03-20T23:39:53.825Z,10.70
2018-03-20T23:42:21.290Z,10.47
2018-03-20T23:44:48.769Z,9.87
2018-03-20T23:47:16.244Z,10.47
2018-03-20T23:49:43.742Z,11.70
2018-03-20T23:52:11.224Z,10.90
2018-03-20T23:54:38.736Z,12.30
2018-03-20T23:57:06.204Z,10.50
2018-03-20T23:59:33.670Z,11.37
